sensor_id;sensor_type;location;lat;lon;timestamp;temperature;humidity
63537;DHT22;49686;51.880;5.632;2023-08-20T00:01:34;17.40;99.90
63537;DHT22;49686;51.880;5.632;2023-08-20T00:04:01;17.50;99.90
63537;DHT22;49686;51.880;5.632;2023-08-20T00:06:29;17.40;99.90
63537;DHT22;49686;51.880;5.632;2023-08-20T00:08:56;17.40;99.90
63537;DHT22;49686;51.880;5.632;2023-08-20T00:11:22;17.30;99.90
63537;DHT22;49686;51.880;5.632;2023-08-20T00:13:53;17.30;99.90
63537;DHT22;49686;51.880;5.632;2023-08-20T00:16:21;17.30;99.90
63537;DHT22;49686;51.880;5.632;2023-08-20T00:18:49;17.20;99.90
63537;DHT22;49686;51.880;5.632;2023-08-20T00:21:17;17.20;99.90
63537;DHT22;49686;51.880;5.632;2023-08-20T00:23:44;17.20;99.90
63537;DHT22;49686;51.880;5.632;2023-08-20T00:26:12;17.20;99.90
63537;DHT22;49686;51.880;5.632;2023-08-20T00:28:39;17.20;99.90
63537;DHT22;49686;51.880;5.632;2023-08-20T00:31:06;17.20;99.90
63537;DHT22;49686;51.880;5.632;2023-08-20T00:33:34;17.10;99.90
63537;DHT22;49686;51.880;5.632;2023-08-20T00:36:01;17.10;99.90
63537;DHT22;49686;51.880;5.632;2023-08-20T00:38:27;17.10;99.90
63537;DHT22;49686;51.880;5.632;2023-08-20T00:40:54;17.20;99.90
63537;DHT22;49686;51.880;5.632;2023-08-20T00:43:21;17.20;99.90
63537;DHT22;49686;51.880;5.632;2023-08-20T00:45:48;17.20;99.90
63537;DHT22;49686;51.880;5.632;2023-08-20T00:48:16;17.30;99.90
63537;DHT22;49686;51.880;5.632;2023-08-20T00:50:44;17.30;99.90
63537;DHT22;49686;51.880;5.632;2023-08-20T00:53:13;17.30;99.90
63537;DHT22;49686;51.880;5.632;2023-08-20T00:55:41;17.30;99.90
63537;DHT22;49686;51.880;5.632;2023-08-20T00:58:08;17.30;99.90
63537;DHT22;49686;51.880;5.632;2023-08-20T01:00:36;17.30;99.90
63537;DHT22;49686;51.880;5.632;2023-08-20T01:03:03;17.40;99.90
63537;DHT22;49686;51.880;5.632;2023-08-20T01:05:33;17.40;99.90
63537;DHT22;49686;51.880;5.632;2023-08-20T01:08:13;17.40;99.90
63537;DHT22;49686;51.880;5.632;2023-08-20T01:10:56;17.50;99.90
63537;DHT22;49686;51.880;5.632;2023-08-20T01:13:24;17.50;99.90
63537;DHT22;49686;51.880;5.632;2023-08-20T01:15:51;17.60;99.90
63537;DHT22;49686;51.880;5.632;2023-08-20T01:18:18;17.60;99.90
63537;DHT22;49686;51.880;5.632;2023-08-20T01:20:47;17.70;99.90
63537;DHT22;49686;51.880;5.632;2023-08-20T01:23:46;17.70;99.90
63537;DHT22;49686;51.880;5.632;2023-08-20T01:26:35;17.70;99.90
63537;DHT22;49686;51.880;5.632;2023-08-20T01:29:09;17.80;99.90
63537;DHT22;49686;51.880;5.632;2023-08-20T01:31:37;17.80;99.90
63537;DHT22;49686;51.880;5.632;2023-08-20T01:34:04;17.70;99.90
63537;DHT22;49686;51.880;5.632;2023-08-20T01:36:31;17.70;99.90
63537;DHT22;49686;51.880;5.632;2023-08-20T01:38:58;17.70;99.90
63537;DHT22;49686;51.880;5.632;2023-08-20T01:41:25;17.70;99.90
63537;DHT22;49686;51.880;5.632;2023-08-20T01:43:52;17.70;99.90
63537;DHT22;49686;51.880;5.632;2023-08-20T01:46:20;17.60;99.90
63537;DHT22;49686;51.880;5.632;2023-08-20T01:48:47;17.60;99.90
63537;DHT22;49686;51.880;5.632;2023-08-20T01:51:13;17.50;99.90
63537;DHT22;49686;51.880;5.632;2023-08-20T01:53:40;17.40;99.90
63537;DHT22;49686;51.880;5.632;2023-08-20T01:56:11;17.40;99.90
63537;DHT22;49686;51.880;5.632;2023-08-20T01:58:37;17.30;99.90
63537;DHT22;49686;51.880;5.632;2023-08-20T02:01:04;17.20;99.90
63537;DHT22;49686;51.880;5.632;2023-08-20T02:03:33;17.20;99.90
63537;DHT22;49686;51.880;5.632;2023-08-20T02:06:00;17.20;99.90
63537;DHT22;49686;51.880;5.632;2023-08-20T02:08:27;17.10;99.90
63537;DHT22;49686;51.880;5.632;2023-08-20T02:11:00;17.10;99.90
63537;DHT22;49686;51.880;5.632;2023-08-20T02:13:27;17.10;99.90
63537;DHT22;49686;51.880;5.632;2023-08-20T02:15:58;17.00;99.90
63537;DHT22;49686;51.880;5.632;2023-08-20T02:18:26;17.00;99.90
63537;DHT22;49686;51.880;5.632;2023-08-20T02:20:54;16.90;99.90
63537;DHT22;49686;51.880;5.632;2023-08-20T02:23:22;16.80;99.90
63537;DHT22;49686;51.880;5.632;2023-08-20T02:25:49;16.70;99.90
63537;DHT22;49686;51.880;5.632;2023-08-20T02:28:15;16.60;99.90
63537;DHT22;49686;51.880;5.632;2023-08-20T02:30:44;16.60;99.90
63537;DHT22;49686;51.880;5.632;2023-08-20T02:33:12;16.60;99.90
63537;DHT22;49686;51.880;5.632;2023-08-20T02:35:39;16.50;99.90
63537;DHT22;49686;51.880;5.632;2023-08-20T02:38:08;16.50;99.90
63537;DHT22;49686;51.880;5.632;2023-08-20T02:40:39;16.50;99.90
63537;DHT22;49686;51.880;5.632;2023-08-20T02:43:06;16.40;99.90
63537;DHT22;49686;51.880;5.632;2023-08-20T02:45:33;16.40;99.90
63537;DHT22;49686;51.880;5.632;2023-08-20T02:48:00;16.40;99.90
63537;DHT22;49686;51.880;5.632;2023-08-20T02:50:26;16.40;99.90
63537;DHT22;49686;51.880;5.632;2023-08-20T02:52:53;16.40;99.90
63537;DHT22;49686;51.880;5.632;2023-08-20T02:55:21;16.40;99.90
63537;DHT22;49686;51.880;5.632;2023-08-20T02:57:48;16.30;99.90
63537;DHT22;49686;51.880;5.632;2023-08-20T03:00:15;16.40;99.90
63537;DHT22;49686;51.880;5.632;2023-08-20T03:02:42;16.30;99.90
63537;DHT22;49686;51.880;5.632;2023-08-20T03:05:10;16.30;99.90
63537;DHT22;49686;51.880;5.632;2023-08-20T03:07:37;16.30;99.90
63537;DHT22;49686;51.880;5.632;2023-08-20T03:10:04;16.20;99.90
63537;DHT22;49686;51.880;5.632;2023-08-20T03:12:32;16.20;99.90
63537;DHT22;49686;51.880;5.632;2023-08-20T03:14:59;16.20;99.90
63537;DHT22;49686;51.880;5.632;2023-08-20T03:17:26;16.10;99.90
63537;DHT22;49686;51.880;5.632;2023-08-20T03:19:54;16.00;99.90
63537;DHT22;49686;51.880;5.632;2023-08-20T03:22:21;16.00;99.90
63537;DHT22;49686;51.880;5.632;2023-08-20T03:24:48;15.90;99.90
63537;DHT22;49686;51.880;5.632;2023-08-20T03:27:17;15.90;99.90
63537;DHT22;49686;51.880;5.632;2023-08-20T03:29:46;15.80;99.90
63537;DHT22;49686;51.880;5.632;2023-08-20T03:32:12;15.80;99.90
63537;DHT22;49686;51.880;5.632;2023-08-20T03:34:39;15.70;99.90
63537;DHT22;49686;51.880;5.632;2023-08-20T03:37:06;15.70;99.90
63537;DHT22;49686;51.880;5.632;2023-08-20T03:39:33;15.60;99.90
63537;DHT22;49686;51.880;5.632;2023-08-20T03:42:00;15.60;99.90
63537;DHT22;49686;51.880;5.632;2023-08-20T03:44:27;15.50;99.90
63537;DHT22;49686;51.880;5.632;2023-08-20T03:46:55;15.50;99.90
63537;DHT22;49686;51.880;5.632;2023-08-20T03:49:22;15.50;99.90
63537;DHT22;49686;51.880;5.632;2023-08-20T03:51:49;15.40;99.90
63537;DHT22;49686;51.880;5.632;2023-08-20T03:54:16;15.40;99.90
63537;DHT22;49686;51.880;5.632;2023-08-20T03:56:43;15.30;99.90
63537;DHT22;49686;51.880;5.632;2023-08-20T03:59:09;15.40;99.90
63537;DHT22;49686;51.880;5.632;2023-08-20T04:01:36;15.40;99.90
63537;DHT22;49686;51.880;5.632;2023-08-20T04:04:05;15.30;99.90
63537;DHT22;49686;51.880;5.632;2023-08-20T04:06:32;15.30;99.90
63537;DHT22;49686;51.880;5.632;2023-08-20T04:08:59;15.30;99.90
63537;DHT22;49686;51.880;5.632;2023-08-20T04:11:26;15.20;99.90
63537;DHT22;49686;51.880;5.632;2023-08-20T04:13:53;15.20;99.90
63537;DHT22;49686;51.880;5.632;2023-08-20T04:16:20;15.20;99.90
63537;DHT22;49686;51.880;5.632;2023-08-20T04:18:46;15.20;99.90
63537;DHT22;49686;51.880;5.632;2023-08-20T04:21:15;15.30;99.90
63537;DHT22;49686;51.880;5.632;2023-08-20T04:23:42;15.20;99.90
63537;DHT22;49686;51.880;5.632;2023-08-20T04:26:09;15.30;99.90
63537;DHT22;49686;51.880;5.632;2023-08-20T04:28:35;15.40;99.90
63537;DHT22;49686;51.880;5.632;2023-08-20T04:31:02;15.40;99.90
63537;DHT22;49686;51.880;5.632;2023-08-20T04:33:29;15.40;99.90
63537;DHT22;49686;51.880;5.632;2023-08-20T04:35:56;15.40;99.90
63537;DHT22;49686;51.880;5.632;2023-08-20T04:38:24;15.40;99.90
63537;DHT22;49686;51.880;5.632;2023-08-20T04:40:51;15.40;99.90
63537;DHT22;49686;51.880;5.632;2023-08-20T04:43:18;15.30;99.90
63537;DHT22;49686;51.880;5.632;2023-08-20T04:45:45;15.30;99.90
63537;DHT22;49686;51.880;5.632;2023-08-20T04:48:11;15.30;99.90
63537;DHT22;49686;51.880;5.632;2023-08-20T04:50:38;15.30;99.90
63537;DHT22;49686;51.880;5.632;2023-08-20T04:53:05;15.30;99.90
63537;DHT22;49686;51.880;5.632;2023-08-20T04:55:33;15.30;99.90
63537;DHT22;49686;51.880;5.632;2023-08-20T04:58:00;15.30;99.90
63537;DHT22;49686;51.880;5.632;2023-08-20T05:00:27;15.30;99.90
63537;DHT22;49686;51.880;5.632;2023-08-20T05:02:54;15.40;99.90
63537;DHT22;49686;51.880;5.632;2023-08-20T05:05:21;15.40;99.90
63537;DHT22;49686;51.880;5.632;2023-08-20T05:07:48;15.40;99.90
63537;DHT22;49686;51.880;5.632;2023-08-20T05:10:14;15.50;99.90
63537;DHT22;49686;51.880;5.632;2023-08-20T05:12:43;15.60;99.90
63537;DHT22;49686;51.880;5.632;2023-08-20T05:15:10;15.70;99.90
63537;DHT22;49686;51.880;5.632;2023-08-20T05:17:37;15.80;99.90
63537;DHT22;49686;51.880;5.632;2023-08-20T05:20:04;15.90;99.90
63537;DHT22;49686;51.880;5.632;2023-08-20T05:22:33;16.10;99.90
63537;DHT22;49686;51.880;5.632;2023-08-20T05:25:01;16.30;99.90
63537;DHT22;49686;51.880;5.632;2023-08-20T05:27:28;16.40;99.90
63537;DHT22;49686;51.880;5.632;2023-08-20T05:29:56;16.50;99.90
63537;DHT22;49686;51.880;5.632;2023-08-20T05:32:23;16.60;99.90
63537;DHT22;49686;51.880;5.632;2023-08-20T05:34:50;16.80;99.90
63537;DHT22;49686;51.880;5.632;2023-08-20T05:37:17;17.00;99.90
63537;DHT22;49686;51.880;5.632;2023-08-20T05:39:44;17.20;99.90
63537;DHT22;49686;51.880;5.632;2023-08-20T05:42:11;17.50;99.90
63537;DHT22;49686;51.880;5.632;2023-08-20T05:44:37;17.80;99.90
63537;DHT22;49686;51.880;5.632;2023-08-20T05:47:07;18.00;99.90
63537;DHT22;49686;51.880;5.632;2023-08-20T05:49:34;18.10;99.90
63537;DHT22;49686;51.880;5.632;2023-08-20T05:52:00;18.10;99.90
63537;DHT22;49686;51.880;5.632;2023-08-20T05:54:27;18.00;99.90
63537;DHT22;49686;51.880;5.632;2023-08-20T05:56:54;18.20;99.90
63537;DHT22;49686;51.880;5.632;2023-08-20T05:59:21;18.30;99.90
63537;DHT22;49686;51.880;5.632;2023-08-20T06:01:48;18.40;99.90
63537;DHT22;49686;51.880;5.632;2023-08-20T06:04:16;18.40;99.90
63537;DHT22;49686;51.880;5.632;2023-08-20T06:06:43;19.20;99.90
63537;DHT22;49686;51.880;5.632;2023-08-20T06:09:10;20.50;99.90
63537;DHT22;49686;51.880;5.632;2023-08-20T06:11:36;21.30;99.90
63537;DHT22;49686;51.880;5.632;2023-08-20T06:14:03;21.80;99.90
63537;DHT22;49686;51.880;5.632;2023-08-20T06:16:30;22.50;99.90
63537;DHT22;49686;51.880;5.632;2023-08-20T06:18:57;23.30;99.90
63537;DHT22;49686;51.880;5.632;2023-08-20T06:21:26;23.90;99.90
63537;DHT22;49686;51.880;5.632;2023-08-20T06:23:53;24.80;99.90
63537;DHT22;49686;51.880;5.632;2023-08-20T06:26:19;25.40;99.90
63537;DHT22;49686;51.880;5.632;2023-08-20T06:28:46;24.40;99.90
63537;DHT22;49686;51.880;5.632;2023-08-20T06:31:13;24.80;99.90
63537;DHT22;49686;51.880;5.632;2023-08-20T06:33:40;25.60;99.90
63537;DHT22;49686;51.880;5.632;2023-08-20T06:36:07;26.40;99.90
63537;DHT22;49686;51.880;5.632;2023-08-20T06:38:35;26.60;99.90
63537;DHT22;49686;51.880;5.632;2023-08-20T06:41:02;25.90;99.90
63537;DHT22;49686;51.880;5.632;2023-08-20T06:43:29;26.30;99.90
63537;DHT22;49686;51.880;5.632;2023-08-20T06:45:58;25.10;99.90
63537;DHT22;49686;51.880;5.632;2023-08-20T06:48:25;23.80;99.90
63537;DHT22;49686;51.880;5.632;2023-08-20T06:50:52;24.90;99.90
63537;DHT22;49686;51.880;5.632;2023-08-20T06:53:19;26.40;99.90
63537;DHT22;49686;51.880;5.632;2023-08-20T06:55:47;27.10;99.90
63537;DHT22;49686;51.880;5.632;2023-08-20T06:58:14;27.70;99.90
63537;DHT22;49686;51.880;5.632;2023-08-20T07:00:41;27.70;99.90
63537;DHT22;49686;51.880;5.632;2023-08-20T07:03:07;27.30;99.90
63537;DHT22;49686;51.880;5.632;2023-08-20T07:05:34;26.00;99.90
63537;DHT22;49686;51.880;5.632;2023-08-20T07:08:01;26.40;99.90
63537;DHT22;49686;51.880;5.632;2023-08-20T07:10:28;25.90;99.90
63537;DHT22;49686;51.880;5.632;2023-08-20T07:12:56;27.30;99.90
63537;DHT22;49686;51.880;5.632;2023-08-20T07:15:23;28.00;99.90
63537;DHT22;49686;51.880;5.632;2023-08-20T07:17:50;27.70;99.90
63537;DHT22;49686;51.880;5.632;2023-08-20T07:20:17;28.40;99.90
63537;DHT22;49686;51.880;5.632;2023-08-20T07:22:44;28.10;99.30
63537;DHT22;49686;51.880;5.632;2023-08-20T07:25:10;28.30;99.70
63537;DHT22;49686;51.880;5.632;2023-08-20T07:27:37;28.20;99.40
63537;DHT22;49686;51.880;5.632;2023-08-20T07:30:07;28.30;99.40
63537;DHT22;49686;51.880;5.632;2023-08-20T07:32:34;28.70;97.70
63537;DHT22;49686;51.880;5.632;2023-08-20T07:35:01;29.10;96.70
63537;DHT22;49686;51.880;5.632;2023-08-20T07:37:27;28.40;97.80
63537;DHT22;49686;51.880;5.632;2023-08-20T07:39:54;27.40;99.00
63537;DHT22;49686;51.880;5.632;2023-08-20T07:42:21;27.90;99.30
63537;DHT22;49686;51.880;5.632;2023-08-20T07:44:48;28.10;99.00
63537;DHT22;49686;51.880;5.632;2023-08-20T07:47:16;28.60;97.70
63537;DHT22;49686;51.880;5.632;2023-08-20T07:49:43;28.10;96.80
63537;DHT22;49686;51.880;5.632;2023-08-20T07:52:10;27.70;97.40
63537;DHT22;49686;51.880;5.632;2023-08-20T07:54:37;27.30;99.00
63537;DHT22;49686;51.880;5.632;2023-08-20T07:57:04;28.10;99.20
63537;DHT22;49686;51.880;5.632;2023-08-20T07:59:31;26.80;98.60
63537;DHT22;49686;51.880;5.632;2023-08-20T08:01:58;26.70;99.90
63537;DHT22;49686;51.880;5.632;2023-08-20T08:04:26;26.90;99.90
63537;DHT22;49686;51.880;5.632;2023-08-20T08:06:53;27.10;99.90
63537;DHT22;49686;51.880;5.632;2023-08-20T08:09:21;26.30;99.90
63537;DHT22;49686;51.880;5.632;2023-08-20T08:11:49;26.10;99.90
63537;DHT22;49686;51.880;5.632;2023-08-20T08:14:16;26.10;99.90
63537;DHT22;49686;51.880;5.632;2023-08-20T08:16:43;26.40;99.90
63537;DHT22;49686;51.880;5.632;2023-08-20T08:19:10;27.20;99.90
63537;DHT22;49686;51.880;5.632;2023-08-20T08:21:39;27.00;99.90
63537;DHT22;49686;51.880;5.632;2023-08-20T08:24:06;27.40;99.90
63537;DHT22;49686;51.880;5.632;2023-08-20T08:26:34;27.10;99.90
63537;DHT22;49686;51.880;5.632;2023-08-20T08:29:01;26.80;99.00
63537;DHT22;49686;51.880;5.632;2023-08-20T08:31:28;26.30;99.80
63537;DHT22;49686;51.880;5.632;2023-08-20T08:33:55;26.40;99.90
63537;DHT22;49686;51.880;5.632;2023-08-20T08:36:23;26.40;99.90
63537;DHT22;49686;51.880;5.632;2023-08-20T08:38:51;26.50;99.90
63537;DHT22;49686;51.880;5.632;2023-08-20T08:41:21;26.40;99.90
63537;DHT22;49686;51.880;5.632;2023-08-20T08:43:49;26.60;99.90
63537;DHT22;49686;51.880;5.632;2023-08-20T08:46:16;26.20;99.90
63537;DHT22;49686;51.880;5.632;2023-08-20T08:48:44;26.40;99.90
63537;DHT22;49686;51.880;5.632;2023-08-20T08:51:12;26.20;99.60
63537;DHT22;49686;51.880;5.632;2023-08-20T08:53:39;25.90;99.70
63537;DHT22;49686;51.880;5.632;2023-08-20T08:56:09;25.50;99.90
63537;DHT22;49686;51.880;5.632;2023-08-20T08:58:36;25.60;99.90
63537;DHT22;49686;51.880;5.632;2023-08-20T09:01:03;25.70;99.90
63537;DHT22;49686;51.880;5.632;2023-08-20T09:03:30;26.10;99.50
63537;DHT22;49686;51.880;5.632;2023-08-20T09:05:59;26.10;99.90
63537;DHT22;49686;51.880;5.632;2023-08-20T09:08:28;26.30;98.70
63537;DHT22;49686;51.880;5.632;2023-08-20T09:10:56;26.90;99.30
63537;DHT22;49686;51.880;5.632;2023-08-20T09:13:25;27.30;97.80
63537;DHT22;49686;51.880;5.632;2023-08-20T09:15:53;27.60;95.40
63537;DHT22;49686;51.880;5.632;2023-08-20T09:18:20;27.60;95.50
63537;DHT22;49686;51.880;5.632;2023-08-20T09:20:48;27.80;96.90
63537;DHT22;49686;51.880;5.632;2023-08-20T09:23:15;27.90;95.20
63537;DHT22;49686;51.880;5.632;2023-08-20T09:25:42;28.10;93.70
63537;DHT22;49686;51.880;5.632;2023-08-20T09:28:09;28.10;94.10
63537;DHT22;49686;51.880;5.632;2023-08-20T09:30:37;27.90;93.50
63537;DHT22;49686;51.880;5.632;2023-08-20T09:33:09;27.40;93.60
63537;DHT22;49686;51.880;5.632;2023-08-20T09:35:37;27.40;94.30
63537;DHT22;49686;51.880;5.632;2023-08-20T09:38:04;27.00;93.80
63537;DHT22;49686;51.880;5.632;2023-08-20T09:40:32;26.90;94.30
63537;DHT22;49686;51.880;5.632;2023-08-20T09:42:59;27.40;94.10
63537;DHT22;49686;51.880;5.632;2023-08-20T09:45:28;27.20;93.00
63537;DHT22;49686;51.880;5.632;2023-08-20T09:48:01;27.50;94.00
63537;DHT22;49686;51.880;5.632;2023-08-20T09:50:36;26.90;93.70
63537;DHT22;49686;51.880;5.632;2023-08-20T09:53:06;26.60;93.30
63537;DHT22;49686;51.880;5.632;2023-08-20T09:55:35;26.50;93.30
63537;DHT22;49686;51.880;5.632;2023-08-20T09:58:05;26.70;94.00
63537;DHT22;49686;51.880;5.632;2023-08-20T10:00:34;26.80;93.00
63537;DHT22;49686;51.880;5.632;2023-08-20T10:03:03;27.60;93.20
63537;DHT22;49686;51.880;5.632;2023-08-20T10:05:30;28.20;91.40
63537;DHT22;49686;51.880;5.632;2023-08-20T10:08:01;28.00;92.00
63537;DHT22;49686;51.880;5.632;2023-08-20T10:10:28;27.50;91.90
63537;DHT22;49686;51.880;5.632;2023-08-20T10:12:56;27.70;92.20
63537;DHT22;49686;51.880;5.632;2023-08-20T10:15:23;27.90;91.90
63537;DHT22;49686;51.880;5.632;2023-08-20T10:17:50;28.00;91.70
63537;DHT22;49686;51.880;5.632;2023-08-20T10:20:18;27.30;91.20
63537;DHT22;49686;51.880;5.632;2023-08-20T10:22:46;27.40;91.60
63537;DHT22;49686;51.880;5.632;2023-08-20T10:25:23;27.70;90.90
63537;DHT22;49686;51.880;5.632;2023-08-20T10:27:51;28.10;90.70
63537;DHT22;49686;51.880;5.632;2023-08-20T10:30:19;28.50;91.00
63537;DHT22;49686;51.880;5.632;2023-08-20T10:32:48;28.50;90.20
63537;DHT22;49686;51.880;5.632;2023-08-20T10:35:16;27.50;90.20
63537;DHT22;49686;51.880;5.632;2023-08-20T10:38:02;27.80;91.00
63537;DHT22;49686;51.880;5.632;2023-08-20T10:40:57;28.20;89.70
63537;DHT22;49686;51.880;5.632;2023-08-20T10:43:31;28.20;90.20
63537;DHT22;49686;51.880;5.632;2023-08-20T10:46:13;28.40;88.40
63537;DHT22;49686;51.880;5.632;2023-08-20T10:48:41;28.60;87.80
63537;DHT22;49686;51.880;5.632;2023-08-20T10:51:09;28.70;90.00
63537;DHT22;49686;51.880;5.632;2023-08-20T10:53:42;29.00;87.60
63537;DHT22;49686;51.880;5.632;2023-08-20T10:56:11;29.00;83.20
63537;DHT22;49686;51.880;5.632;2023-08-20T10:58:42;29.10;82.00
63537;DHT22;49686;51.880;5.632;2023-08-20T11:01:14;28.90;81.90
63537;DHT22;49686;51.880;5.632;2023-08-20T11:03:41;28.70;82.50
63537;DHT22;49686;51.880;5.632;2023-08-20T11:06:08;28.30;83.40
63537;DHT22;49686;51.880;5.632;2023-08-20T11:08:35;28.80;83.40
63537;DHT22;49686;51.880;5.632;2023-08-20T11:11:04;28.70;84.00
63537;DHT22;49686;51.880;5.632;2023-08-20T11:13:32;28.90;85.70
63537;DHT22;49686;51.880;5.632;2023-08-20T11:15:59;29.00;85.00
63537;DHT22;49686;51.880;5.632;2023-08-20T11:18:26;28.50;85.90
63537;DHT22;49686;51.880;5.632;2023-08-20T11:20:54;28.80;82.90
63537;DHT22;49686;51.880;5.632;2023-08-20T11:23:21;28.40;82.30
63537;DHT22;49686;51.880;5.632;2023-08-20T11:25:48;28.30;81.80
63537;DHT22;49686;51.880;5.632;2023-08-20T11:28:16;28.00;80.10
63537;DHT22;49686;51.880;5.632;2023-08-20T11:30:43;27.90;81.40
63537;DHT22;49686;51.880;5.632;2023-08-20T11:33:10;28.40;81.10
63537;DHT22;49686;51.880;5.632;2023-08-20T11:35:37;28.40;80.40
63537;DHT22;49686;51.880;5.632;2023-08-20T11:38:05;28.50;81.00
63537;DHT22;49686;51.880;5.632;2023-08-20T11:40:32;28.50;79.40
63537;DHT22;49686;51.880;5.632;2023-08-20T11:42:59;28.80;79.70
63537;DHT22;49686;51.880;5.632;2023-08-20T11:45:28;29.10;80.40
63537;DHT22;49686;51.880;5.632;2023-08-20T11:47:55;29.30;81.50
63537;DHT22;49686;51.880;5.632;2023-08-20T11:50:22;29.10;82.40
63537;DHT22;49686;51.880;5.632;2023-08-20T11:52:52;28.90;82.60
63537;DHT22;49686;51.880;5.632;2023-08-20T11:55:22;28.80;81.10
63537;DHT22;49686;51.880;5.632;2023-08-20T11:57:50;29.40;79.80
63537;DHT22;49686;51.880;5.632;2023-08-20T12:00:24;29.60;77.70
63537;DHT22;49686;51.880;5.632;2023-08-20T12:02:54;29.70;79.00
63537;DHT22;49686;51.880;5.632;2023-08-20T12:05:22;30.20;78.70
63537;DHT22;49686;51.880;5.632;2023-08-20T12:07:57;30.00;75.40
63537;DHT22;49686;51.880;5.632;2023-08-20T12:10:25;30.10;75.80
63537;DHT22;49686;51.880;5.632;2023-08-20T12:12:55;29.90;76.30
63537;DHT22;49686;51.880;5.632;2023-08-20T12:15:22;30.30;77.40
63537;DHT22;49686;51.880;5.632;2023-08-20T12:17:58;30.80;76.30
63537;DHT22;49686;51.880;5.632;2023-08-20T12:20:27;30.60;75.90
63537;DHT22;49686;51.880;5.632;2023-08-20T12:22:56;28.90;77.00
63537;DHT22;49686;51.880;5.632;2023-08-20T12:25:23;29.10;77.40
63537;DHT22;49686;51.880;5.632;2023-08-20T12:27:50;29.20;78.70
63537;DHT22;49686;51.880;5.632;2023-08-20T12:30:17;29.60;77.20
63537;DHT22;49686;51.880;5.632;2023-08-20T12:32:43;29.90;76.80
63537;DHT22;49686;51.880;5.632;2023-08-20T12:35:12;30.40;77.00
63537;DHT22;49686;51.880;5.632;2023-08-20T12:37:39;30.70;76.00
63537;DHT22;49686;51.880;5.632;2023-08-20T12:40:06;31.10;74.50
63537;DHT22;49686;51.880;5.632;2023-08-20T12:42:33;31.00;74.30
63537;DHT22;49686;51.880;5.632;2023-08-20T12:45:00;30.10;74.10
63537;DHT22;49686;51.880;5.632;2023-08-20T12:47:27;30.00;75.20
63537;DHT22;49686;51.880;5.632;2023-08-20T12:49:54;29.90;74.10
63537;DHT22;49686;51.880;5.632;2023-08-20T12:52:22;29.80;74.60
63537;DHT22;49686;51.880;5.632;2023-08-20T12:54:49;29.80;74.40
63537;DHT22;49686;51.880;5.632;2023-08-20T12:57:16;30.00;74.20
63537;DHT22;49686;51.880;5.632;2023-08-20T12:59:43;30.20;75.10
63537;DHT22;49686;51.880;5.632;2023-08-20T13:02:10;30.60;73.90
63537;DHT22;49686;51.880;5.632;2023-08-20T13:04:37;29.90;74.20
63537;DHT22;49686;51.880;5.632;2023-08-20T13:07:05;29.80;74.00
63537;DHT22;49686;51.880;5.632;2023-08-20T13:09:34;29.40;75.10
63537;DHT22;49686;51.880;5.632;2023-08-20T13:12:01;29.10;75.60
63537;DHT22;49686;51.880;5.632;2023-08-20T13:14:29;29.50;73.90
63537;DHT22;49686;51.880;5.632;2023-08-20T13:16:56;29.80;74.60
63537;DHT22;49686;51.880;5.632;2023-08-20T13:19:23;29.50;73.00
63537;DHT22;49686;51.880;5.632;2023-08-20T13:21:50;28.70;74.90
63537;DHT22;49686;51.880;5.632;2023-08-20T13:24:16;28.10;75.60
63537;DHT22;49686;51.880;5.632;2023-08-20T13:26:45;28.20;76.00
63537;DHT22;49686;51.880;5.632;2023-08-20T13:29:11;28.60;76.20
63537;DHT22;49686;51.880;5.632;2023-08-20T13:31:38;29.20;75.30
63537;DHT22;49686;51.880;5.632;2023-08-20T13:34:05;29.30;75.50
63537;DHT22;49686;51.880;5.632;2023-08-20T13:36:32;29.20;74.70
63537;DHT22;49686;51.880;5.632;2023-08-20T13:38:59;29.20;74.20
63537;DHT22;49686;51.880;5.632;2023-08-20T13:41:26;28.70;75.30
63537;DHT22;49686;51.880;5.632;2023-08-20T13:43:57;28.60;76.50
63537;DHT22;49686;51.880;5.632;2023-08-20T13:46:24;28.90;76.20
63537;DHT22;49686;51.880;5.632;2023-08-20T13:48:51;29.10;75.50
63537;DHT22;49686;51.880;5.632;2023-08-20T13:51:18;29.70;74.50
63537;DHT22;49686;51.880;5.632;2023-08-20T13:53:45;29.70;75.10
63537;DHT22;49686;51.880;5.632;2023-08-20T13:56:12;30.00;74.00
63537;DHT22;49686;51.880;5.632;2023-08-20T13:58:39;30.30;72.80
63537;DHT22;49686;51.880;5.632;2023-08-20T14:01:08;30.20;73.70
63537;DHT22;49686;51.880;5.632;2023-08-20T14:03:37;29.90;74.20
63537;DHT22;49686;51.880;5.632;2023-08-20T14:06:04;30.20;74.80
63537;DHT22;49686;51.880;5.632;2023-08-20T14:08:31;29.80;75.70
63537;DHT22;49686;51.880;5.632;2023-08-20T14:10:58;29.70;76.00
63537;DHT22;49686;51.880;5.632;2023-08-20T14:13:25;29.30;77.50
63537;DHT22;49686;51.880;5.632;2023-08-20T14:15:52;29.20;77.00
63537;DHT22;49686;51.880;5.632;2023-08-20T14:18:20;29.30;76.40
63537;DHT22;49686;51.880;5.632;2023-08-20T14:20:47;28.90;77.70
63537;DHT22;49686;51.880;5.632;2023-08-20T14:23:14;29.00;77.50
63537;DHT22;49686;51.880;5.632;2023-08-20T14:25:41;29.30;76.40
63537;DHT22;49686;51.880;5.632;2023-08-20T14:28:08;29.20;77.50
63537;DHT22;49686;51.880;5.632;2023-08-20T14:30:36;28.90;79.50
63537;DHT22;49686;51.880;5.632;2023-08-20T14:33:03;28.80;79.20
63537;DHT22;49686;51.880;5.632;2023-08-20T14:35:32;28.30;79.70
63537;DHT22;49686;51.880;5.632;2023-08-20T14:37:59;28.40;80.00
63537;DHT22;49686;51.880;5.632;2023-08-20T14:40:26;28.40;79.30
63537;DHT22;49686;51.880;5.632;2023-08-20T14:42:52;28.30;80.60
63537;DHT22;49686;51.880;5.632;2023-08-20T14:45:19;28.50;79.30
63537;DHT22;49686;51.880;5.632;2023-08-20T14:47:46;28.90;77.30
63537;DHT22;49686;51.880;5.632;2023-08-20T14:50:13;28.80;77.50
63537;DHT22;49686;51.880;5.632;2023-08-20T14:52:41;28.80;77.60
63537;DHT22;49686;51.880;5.632;2023-08-20T14:55:08;29.00;78.20
63537;DHT22;49686;51.880;5.632;2023-08-20T14:57:35;29.30;78.30
63537;DHT22;49686;51.880;5.632;2023-08-20T15:00:17;29.00;77.40
63537;DHT22;49686;51.880;5.632;2023-08-20T15:02:44;28.20;79.70
63537;DHT22;49686;51.880;5.632;2023-08-20T15:05:11;28.00;81.10
63537;DHT22;49686;51.880;5.632;2023-08-20T15:07:40;28.00;79.70
63537;DHT22;49686;51.880;5.632;2023-08-20T15:10:08;28.10;80.50
63537;DHT22;49686;51.880;5.632;2023-08-20T15:12:36;28.50;78.70
63537;DHT22;49686;51.880;5.632;2023-08-20T15:15:04;28.70;77.90
63537;DHT22;49686;51.880;5.632;2023-08-20T15:17:31;29.00;77.80
63537;DHT22;49686;51.880;5.632;2023-08-20T15:19:58;29.20;77.90
63537;DHT22;49686;51.880;5.632;2023-08-20T15:22:25;29.40;77.30
63537;DHT22;49686;51.880;5.632;2023-08-20T15:24:54;29.40;76.20
63537;DHT22;49686;51.880;5.632;2023-08-20T15:27:23;29.20;76.80
63537;DHT22;49686;51.880;5.632;2023-08-20T15:29:50;28.50;77.80
63537;DHT22;49686;51.880;5.632;2023-08-20T15:32:17;28.20;78.10
63537;DHT22;49686;51.880;5.632;2023-08-20T15:34:44;28.10;78.80